sensor_id;sensor_type;location;lat;lon;timestamp;temperature;humidity
10968;DHT22;5536;49.602;10.980;2023-02-28T00:00:26;-1.80;99.90
10968;DHT22;5536;49.602;10.980;2023-02-28T00:02:53;-1.90;99.90
10968;DHT22;5536;49.602;10.980;2023-02-28T00:05:21;-1.90;99.90
10968;DHT22;5536;49.602;10.980;2023-02-28T00:07:49;-1.90;99.90
10968;DHT22;5536;49.602;10.980;2023-02-28T00:10:19;-1.90;99.90
10968;DHT22;5536;49.602;10.980;2023-02-28T00:12:46;-1.90;99.90
10968;DHT22;5536;49.602;10.980;2023-02-28T00:15:15;-1.90;99.90
10968;DHT22;5536;49.602;10.980;2023-02-28T00:17:42;-2.00;99.90
10968;DHT22;5536;49.602;10.980;2023-02-28T00:20:11;-2.00;99.90
10968;DHT22;5536;49.602;10.980;2023-02-28T00:22:40;-2.00;99.90
10968;DHT22;5536;49.602;10.980;2023-02-28T00:25:08;-2.00;99.90
10968;DHT22;5536;49.602;10.980;2023-02-28T00:27:36;-2.00;99.90
10968;DHT22;5536;49.602;10.980;2023-02-28T00:30:05;-2.00;99.90
10968;DHT22;5536;49.602;10.980;2023-02-28T00:32:35;-2.00;99.90
10968;DHT22;5536;49.602;10.980;2023-02-28T00:35:03;-2.00;99.90
10968;DHT22;5536;49.602;10.980;2023-02-28T00:37:30;-2.00;99.90
10968;DHT22;5536;49.602;10.980;2023-02-28T00:39:57;-2.00;99.90
10968;DHT22;5536;49.602;10.980;2023-02-28T00:42:25;-2.00;99.90
10968;DHT22;5536;49.602;10.980;2023-02-28T00:44:52;-2.10;99.90
10968;DHT22;5536;49.602;10.980;2023-02-28T00:47:19;-2.10;99.90
10968;DHT22;5536;49.602;10.980;2023-02-28T00:49:48;-2.10;99.90
10968;DHT22;5536;49.602;10.980;2023-02-28T00:52:15;-2.10;99.90
10968;DHT22;5536;49.602;10.980;2023-02-28T00:54:42;-2.10;99.90
10968;DHT22;5536;49.602;10.980;2023-02-28T00:57:09;-2.00;99.90
10968;DHT22;5536;49.602;10.980;2023-02-28T00:59:36;-2.10;99.90
10968;DHT22;5536;49.602;10.980;2023-02-28T01:02:03;-2.10;99.90
10968;DHT22;5536;49.602;10.980;2023-02-28T01:04:30;-2.10;99.90
10968;DHT22;5536;49.602;10.980;2023-02-28T01:06:59;-2.10;99.90
10968;DHT22;5536;49.602;10.980;2023-02-28T01:09:26;-2.20;99.90
10968;DHT22;5536;49.602;10.980;2023-02-28T01:11:53;-2.30;99.90
10968;DHT22;5536;49.602;10.980;2023-02-28T01:14:20;-2.30;99.90
10968;DHT22;5536;49.602;10.980;2023-02-28T01:16:47;-2.30;99.90
10968;DHT22;5536;49.602;10.980;2023-02-28T01:19:14;-2.30;99.90
10968;DHT22;5536;49.602;10.980;2023-02-28T01:21:42;-2.30;99.90
10968;DHT22;5536;49.602;10.980;2023-02-28T01:24:10;-2.30;99.90
10968;DHT22;5536;49.602;10.980;2023-02-28T01:26:38;-2.30;99.90
10968;DHT22;5536;49.602;10.980;2023-02-28T01:29:05;-2.30;99.90
10968;DHT22;5536;49.602;10.980;2023-02-28T01:31:32;-2.30;99.90
10968;DHT22;5536;49.602;10.980;2023-02-28T01:33:59;-2.30;99.90
10968;DHT22;5536;49.602;10.980;2023-02-28T01:36:26;-2.30;99.90
10968;DHT22;5536;49.602;10.980;2023-02-28T01:38:53;-2.30;99.90
10968;DHT22;5536;49.602;10.980;2023-02-28T01:41:23;-2.30;99.90
10968;DHT22;5536;49.602;10.980;2023-02-28T01:43:57;-2.30;99.90
10968;DHT22;5536;49.602;10.980;2023-02-28T01:46:24;-2.30;99.90
10968;DHT22;5536;49.602;10.980;2023-02-28T01:48:54;-2.30;99.90
10968;DHT22;5536;49.602;10.980;2023-02-28T01:51:28;-2.30;99.90
10968;DHT22;5536;49.602;10.980;2023-02-28T01:54:01;-2.30;99.90
10968;DHT22;5536;49.602;10.980;2023-02-28T01:56:34;-2.30;99.90
10968;DHT22;5536;49.602;10.980;2023-02-28T01:59:03;-2.40;99.90
10968;DHT22;5536;49.602;10.980;2023-02-28T02:01:30;-2.30;99.90
10968;DHT22;5536;49.602;10.980;2023-02-28T02:04:01;-2.40;99.90
10968;DHT22;5536;49.602;10.980;2023-02-28T02:06:33;-2.40;99.90
10968;DHT22;5536;49.602;10.980;2023-02-28T02:09:00;-2.50;99.90
10968;DHT22;5536;49.602;10.980;2023-02-28T02:11:30;-2.50;99.90
10968;DHT22;5536;49.602;10.980;2023-02-28T02:17:07;-2.50;99.90
10968;DHT22;5536;49.602;10.980;2023-02-28T02:19:53;-2.50;99.90
10968;DHT22;5536;49.602;10.980;2023-02-28T02:22:54;-2.60;99.90
10968;DHT22;5536;49.602;10.980;2023-02-28T02:25:29;-2.60;99.90
10968;DHT22;5536;49.602;10.980;2023-02-28T02:28:22;-2.50;99.90
10968;DHT22;5536;49.602;10.980;2023-02-28T02:34:20;-2.70;99.90
10968;DHT22;5536;49.602;10.980;2023-02-28T02:36:53;-2.70;99.90
10968;DHT22;5536;49.602;10.980;2023-02-28T02:39:33;-2.70;99.90
10968;DHT22;5536;49.602;10.980;2023-02-28T02:42:09;-2.70;99.90
10968;DHT22;5536;49.602;10.980;2023-02-28T02:44:42;-2.70;99.90
10968;DHT22;5536;49.602;10.980;2023-02-28T02:47:13;-2.80;99.90
10968;DHT22;5536;49.602;10.980;2023-02-28T02:49:46;-2.80;99.90
10968;DHT22;5536;49.602;10.980;2023-02-28T02:52:18;-2.80;99.90
10968;DHT22;5536;49.602;10.980;2023-02-28T02:54:48;-2.80;99.90
10968;DHT22;5536;49.602;10.980;2023-02-28T02:57:23;-2.80;99.90
10968;DHT22;5536;49.602;10.980;2023-02-28T02:59:52;-2.80;99.90
10968;DHT22;5536;49.602;10.980;2023-02-28T03:02:21;-2.90;99.90
10968;DHT22;5536;49.602;10.980;2023-02-28T03:04:52;-2.80;99.90
10968;DHT22;5536;49.602;10.980;2023-02-28T03:07:20;-2.90;99.90
10968;DHT22;5536;49.602;10.980;2023-02-28T03:09:51;-2.80;99.90
10968;DHT22;5536;49.602;10.980;2023-02-28T03:12:19;-2.80;99.90
10968;DHT22;5536;49.602;10.980;2023-02-28T03:14:56;-2.90;99.90
10968;DHT22;5536;49.602;10.980;2023-02-28T03:20:35;-2.80;99.90
10968;DHT22;5536;49.602;10.980;2023-02-28T03:23:13;-2.80;99.90
10968;DHT22;5536;49.602;10.980;2023-02-28T03:25:54;-2.80;99.90
10968;DHT22;5536;49.602;10.980;2023-02-28T03:28:30;-2.70;99.90
10968;DHT22;5536;49.602;10.980;2023-02-28T03:31:00;-2.70;99.90
10968;DHT22;5536;49.602;10.980;2023-02-28T03:33:33;-2.70;99.90
10968;DHT22;5536;49.602;10.980;2023-02-28T03:36:07;-2.80;99.90
10968;DHT22;5536;49.602;10.980;2023-02-28T03:38:38;-2.70;99.90
10968;DHT22;5536;49.602;10.980;2023-02-28T03:41:10;-2.70;99.90
10968;DHT22;5536;49.602;10.980;2023-02-28T03:43:43;-2.70;99.90
10968;DHT22;5536;49.602;10.980;2023-02-28T03:46:14;-2.80;99.90
10968;DHT22;5536;49.602;10.980;2023-02-28T03:48:47;-2.80;99.90
10968;DHT22;5536;49.602;10.980;2023-02-28T03:51:19;-2.80;99.90
10968;DHT22;5536;49.602;10.980;2023-02-28T03:53:52;-2.70;99.90
10968;DHT22;5536;49.602;10.980;2023-02-28T03:56:23;-2.60;99.90
10968;DHT22;5536;49.602;10.980;2023-02-28T03:58:55;-2.60;99.90
10968;DHT22;5536;49.602;10.980;2023-02-28T04:01:25;-2.50;99.90
10968;DHT22;5536;49.602;10.980;2023-02-28T04:03:54;-2.60;99.90
10968;DHT22;5536;49.602;10.980;2023-02-28T04:06:24;-2.50;99.90
10968;DHT22;5536;49.602;10.980;2023-02-28T04:08:51;-2.50;99.90
10968;DHT22;5536;49.602;10.980;2023-02-28T04:11:22;-2.50;99.90
10968;DHT22;5536;49.602;10.980;2023-02-28T04:13:49;-2.50;99.90
10968;DHT22;5536;49.602;10.980;2023-02-28T04:16:17;-2.50;99.90
10968;DHT22;5536;49.602;10.980;2023-02-28T04:18:45;-2.50;99.90
10968;DHT22;5536;49.602;10.980;2023-02-28T04:21:12;-2.60;99.90
10968;DHT22;5536;49.602;10.980;2023-02-28T04:23:40;-2.60;99.90
10968;DHT22;5536;49.602;10.980;2023-02-28T04:26:07;-2.60;99.90
10968;DHT22;5536;49.602;10.980;2023-02-28T04:28:34;-2.60;99.90
10968;DHT22;5536;49.602;10.980;2023-02-28T04:31:03;-2.70;99.90
10968;DHT22;5536;49.602;10.980;2023-02-28T04:33:31;-2.70;99.90
10968;DHT22;5536;49.602;10.980;2023-02-28T04:35:59;-2.70;99.90
10968;DHT22;5536;49.602;10.980;2023-02-28T04:38:26;-2.60;99.90
10968;DHT22;5536;49.602;10.980;2023-02-28T04:40:57;-2.60;99.90
10968;DHT22;5536;49.602;10.980;2023-02-28T04:43:24;-2.60;99.90
10968;DHT22;5536;49.602;10.980;2023-02-28T04:45:51;-2.60;99.90
10968;DHT22;5536;49.602;10.980;2023-02-28T04:48:19;-2.60;99.90
10968;DHT22;5536;49.602;10.980;2023-02-28T04:50:46;-2.60;99.90
10968;DHT22;5536;49.602;10.980;2023-02-28T04:53:13;-2.60;99.90
10968;DHT22;5536;49.602;10.980;2023-02-28T04:55:40;-2.60;99.90
10968;DHT22;5536;49.602;10.980;2023-02-28T04:58:09;-2.60;99.90
10968;DHT22;5536;49.602;10.980;2023-02-28T05:00:36;-2.60;99.90
10968;DHT22;5536;49.602;10.980;2023-02-28T05:03:03;-2.60;99.90
10968;DHT22;5536;49.602;10.980;2023-02-28T05:05:30;-2.60;99.90
10968;DHT22;5536;49.602;10.980;2023-02-28T05:07:57;-2.50;99.90
10968;DHT22;5536;49.602;10.980;2023-02-28T05:10:24;-2.50;99.90
10968;DHT22;5536;49.602;10.980;2023-02-28T05:12:51;-2.50;99.90
10968;DHT22;5536;49.602;10.980;2023-02-28T05:15:19;-2.50;99.90
10968;DHT22;5536;49.602;10.980;2023-02-28T05:17:46;-2.50;99.90
10968;DHT22;5536;49.602;10.980;2023-02-28T05:20:13;-2.40;99.90
10968;DHT22;5536;49.602;10.980;2023-02-28T05:22:41;-2.40;99.90
10968;DHT22;5536;49.602;10.980;2023-02-28T05:25:10;-2.50;99.90
10968;DHT22;5536;49.602;10.980;2023-02-28T05:27:39;-2.40;99.90
10968;DHT22;5536;49.602;10.980;2023-02-28T05:30:07;-2.50;99.90
10968;DHT22;5536;49.602;10.980;2023-02-28T05:32:37;-2.50;99.90
10968;DHT22;5536;49.602;10.980;2023-02-28T05:35:05;-2.50;99.90
10968;DHT22;5536;49.602;10.980;2023-02-28T05:37:32;-2.50;99.90
10968;DHT22;5536;49.602;10.980;2023-02-28T05:39:59;-2.50;99.90
10968;DHT22;5536;49.602;10.980;2023-02-28T05:42:26;-2.50;99.90
10968;DHT22;5536;49.602;10.980;2023-02-28T05:44:56;-2.50;99.90
10968;DHT22;5536;49.602;10.980;2023-02-28T05:47:23;-2.50;99.90
10968;DHT22;5536;49.602;10.980;2023-02-28T05:49:51;-2.50;99.90
10968;DHT22;5536;49.602;10.980;2023-02-28T05:52:18;-2.50;99.90
10968;DHT22;5536;49.602;10.980;2023-02-28T05:54:46;-2.50;99.90
10968;DHT22;5536;49.602;10.980;2023-02-28T05:57:13;-2.50;99.90
10968;DHT22;5536;49.602;10.980;2023-02-28T05:59:40;-2.60;99.90
10968;DHT22;5536;49.602;10.980;2023-02-28T06:02:11;-2.60;99.90
10968;DHT22;5536;49.602;10.980;2023-02-28T06:04:39;-2.50;99.90
10968;DHT22;5536;49.602;10.980;2023-02-28T06:07:08;-2.50;99.90
10968;DHT22;5536;49.602;10.980;2023-02-28T06:09:35;-2.60;99.90
10968;DHT22;5536;49.602;10.980;2023-02-28T06:12:04;-2.50;99.90
10968;DHT22;5536;49.602;10.980;2023-02-28T06:14:33;-2.50;99.90
10968;DHT22;5536;49.602;10.980;2023-02-28T06:17:00;-2.40;99.90
10968;DHT22;5536;49.602;10.980;2023-02-28T06:19:28;-2.40;99.90
10968;DHT22;5536;49.602;10.980;2023-02-28T06:21:56;-2.40;99.90
10968;DHT22;5536;49.602;10.980;2023-02-28T06:24:26;-2.40;99.90
10968;DHT22;5536;49.602;10.980;2023-02-28T06:26:54;-2.30;99.90
10968;DHT22;5536;49.602;10.980;2023-02-28T06:29:21;-2.30;99.90
10968;DHT22;5536;49.602;10.980;2023-02-28T06:31:48;-2.20;99.90
10968;DHT22;5536;49.602;10.980;2023-02-28T06:34:15;-2.20;99.90
10968;DHT22;5536;49.602;10.980;2023-02-28T06:36:43;-2.10;99.90
10968;DHT22;5536;49.602;10.980;2023-02-28T06:39:10;-2.10;99.90
10968;DHT22;5536;49.602;10.980;2023-02-28T06:41:38;-2.00;99.90
10968;DHT22;5536;49.602;10.980;2023-02-28T06:44:10;-1.90;99.90
10968;DHT22;5536;49.602;10.980;2023-02-28T06:46:39;-1.90;99.90
10968;DHT22;5536;49.602;10.980;2023-02-28T06:49:06;-1.80;99.90
10968;DHT22;5536;49.602;10.980;2023-02-28T06:51:35;-1.80;99.90
10968;DHT22;5536;49.602;10.980;2023-02-28T06:54:03;-1.80;99.90
10968;DHT22;5536;49.602;10.980;2023-02-28T06:56:30;-1.80;99.90
10968;DHT22;5536;49.602;10.980;2023-02-28T06:58:58;-1.80;99.90
10968;DHT22;5536;49.602;10.980;2023-02-28T07:01:25;-1.80;99.90
10968;DHT22;5536;49.602;10.980;2023-02-28T07:03:54;-1.70;99.90
10968;DHT22;5536;49.602;10.980;2023-02-28T07:06:22;-1.70;99.90
10968;DHT22;5536;49.602;10.980;2023-02-28T07:08:50;-1.70;99.90
10968;DHT22;5536;49.602;10.980;2023-02-28T07:11:17;-1.70;99.90
10968;DHT22;5536;49.602;10.980;2023-02-28T07:13:44;-1.60;99.90
10968;DHT22;5536;49.602;10.980;2023-02-28T07:16:13;-1.60;99.90
10968;DHT22;5536;49.602;10.980;2023-02-28T07:18:40;-1.60;99.90
10968;DHT22;5536;49.602;10.980;2023-02-28T07:21:09;-1.50;99.90
10968;DHT22;5536;49.602;10.980;2023-02-28T07:23:36;-1.50;99.90
10968;DHT22;5536;49.602;10.980;2023-02-28T07:26:05;-1.40;99.90
10968;DHT22;5536;49.602;10.980;2023-02-28T07:28:32;-1.40;99.90
10968;DHT22;5536;49.602;10.980;2023-02-28T07:31:03;-1.30;99.90
10968;DHT22;5536;49.602;10.980;2023-02-28T07:33:32;-1.30;99.90
10968;DHT22;5536;49.602;10.980;2023-02-28T07:36:03;-1.20;99.90
10968;DHT22;5536;49.602;10.980;2023-02-28T07:38:30;-1.10;99.90
10968;DHT22;5536;49.602;10.980;2023-02-28T07:40:57;-1.10;99.90
10968;DHT22;5536;49.602;10.980;2023-02-28T07:43:24;-1.00;99.90
10968;DHT22;5536;49.602;10.980;2023-02-28T07:45:51;-0.90;99.90
10968;DHT22;5536;49.602;10.980;2023-02-28T07:48:18;-0.80;99.90
10968;DHT22;5536;49.602;10.980;2023-02-28T07:50:54;-0.80;99.90
10968;DHT22;5536;49.602;10.980;2023-02-28T07:53:21;-0.70;99.90
10968;DHT22;5536;49.602;10.980;2023-02-28T07:55:48;-0.60;99.90
10968;DHT22;5536;49.602;10.980;2023-02-28T07:58:15;-0.50;99.90
10968;DHT22;5536;49.602;10.980;2023-02-28T08:00:42;-0.40;99.90
10968;DHT22;5536;49.602;10.980;2023-02-28T08:03:11;-0.30;99.90
10968;DHT22;5536;49.602;10.980;2023-02-28T08:05:38;-0.20;99.90
10968;DHT22;5536;49.602;10.980;2023-02-28T08:08:07;-0.20;99.90
10968;DHT22;5536;49.602;10.980;2023-02-28T08:10:35;-0.10;99.90
10968;DHT22;5536;49.602;10.980;2023-02-28T08:13:02;0.00;99.90
10968;DHT22;5536;49.602;10.980;2023-02-28T08:15:29;0.00;99.90
10968;DHT22;5536;49.602;10.980;2023-02-28T08:17:58;0.10;99.90
10968;DHT22;5536;49.602;10.980;2023-02-28T08:20:26;0.20;99.90
10968;DHT22;5536;49.602;10.980;2023-02-28T08:22:53;0.30;99.90
10968;DHT22;5536;49.602;10.980;2023-02-28T08:25:21;0.30;99.90
10968;DHT22;5536;49.602;10.980;2023-02-28T08:27:50;0.40;99.90
10968;DHT22;5536;49.602;10.980;2023-02-28T08:30:18;0.60;99.90
10968;DHT22;5536;49.602;10.980;2023-02-28T08:32:45;0.60;99.90
10968;DHT22;5536;49.602;10.980;2023-02-28T08:35:12;0.70;99.90
10968;DHT22;5536;49.602;10.980;2023-02-28T08:37:38;0.80;99.90
10968;DHT22;5536;49.602;10.980;2023-02-28T08:40:07;1.00;99.90
10968;DHT22;5536;49.602;10.980;2023-02-28T08:42:36;1.10;99.90
10968;DHT22;5536;49.602;10.980;2023-02-28T08:45:03;1.20;99.90
10968;DHT22;5536;49.602;10.980;2023-02-28T08:47:30;1.30;99.90
10968;DHT22;5536;49.602;10.980;2023-02-28T08:49:57;1.30;99.90
10968;DHT22;5536;49.602;10.980;2023-02-28T08:52:24;1.50;99.90
10968;DHT22;5536;49.602;10.980;2023-02-28T08:54:51;1.60;99.90
10968;DHT22;5536;49.602;10.980;2023-02-28T08:57:17;1.60;99.90
10968;DHT22;5536;49.602;10.980;2023-02-28T08:59:46;1.50;99.90
10968;DHT22;5536;49.602;10.980;2023-02-28T09:02:13;1.60;99.90
10968;DHT22;5536;49.602;10.980;2023-02-28T09:04:41;1.70;99.90
10968;DHT22;5536;49.602;10.980;2023-02-28T09:07:08;1.80;99.90
10968;DHT22;5536;49.602;10.980;2023-02-28T09:09:35;1.80;99.90
10968;DHT22;5536;49.602;10.980;2023-02-28T09:12:02;1.80;99.90
10968;DHT22;5536;49.602;10.980;2023-02-28T09:14:29;1.80;99.90
10968;DHT22;5536;49.602;10.980;2023-02-28T09:16:58;1.90;99.90
10968;DHT22;5536;49.602;10.980;2023-02-28T09:19:25;2.10;99.90
10968;DHT22;5536;49.602;10.980;2023-02-28T09:21:52;2.20;99.90
10968;DHT22;5536;49.602;10.980;2023-02-28T09:24:19;2.20;99.90
10968;DHT22;5536;49.602;10.980;2023-02-28T09:26:46;2.20;99.90
10968;DHT22;5536;49.602;10.980;2023-02-28T09:29:13;2.20;99.90
10968;DHT22;5536;49.602;10.980;2023-02-28T09:31:40;2.20;99.90
10968;DHT22;5536;49.602;10.980;2023-02-28T09:34:08;2.30;99.90
10968;DHT22;5536;49.602;10.980;2023-02-28T09:36:35;2.30;99.90
10968;DHT22;5536;49.602;10.980;2023-02-28T09:39:03;2.30;99.90
10968;DHT22;5536;49.602;10.980;2023-02-28T09:41:37;2.50;99.90
10968;DHT22;5536;49.602;10.980;2023-02-28T09:44:07;2.60;99.90
10968;DHT22;5536;49.602;10.980;2023-02-28T09:46:41;2.80;99.90
10968;DHT22;5536;49.602;10.980;2023-02-28T09:49:14;2.70;99.90
10968;DHT22;5536;49.602;10.980;2023-02-28T09:51:49;2.80;99.90
10968;DHT22;5536;49.602;10.980;2023-02-28T09:54:19;2.90;99.90
10968;DHT22;5536;49.602;10.980;2023-02-28T09:56:51;3.00;99.90
10968;DHT22;5536;49.602;10.980;2023-02-28T09:59:31;3.00;99.90
10968;DHT22;5536;49.602;10.980;2023-02-28T10:02:13;3.10;99.90
10968;DHT22;5536;49.602;10.980;2023-02-28T10:04:49;3.10;99.90
10968;DHT22;5536;49.602;10.980;2023-02-28T10:07:29;3.10;99.90
10968;DHT22;5536;49.602;10.980;2023-02-28T10:10:04;3.20;99.90
10968;DHT22;5536;49.602;10.980;2023-02-28T10:12:37;3.40;99.90
10968;DHT22;5536;49.602;10.980;2023-02-28T10:15:13;3.30;99.90
10968;DHT22;5536;49.602;10.980;2023-02-28T10:17:43;3.50;99.90
10968;DHT22;5536;49.602;10.980;2023-02-28T10:20:17;3.50;99.90
10968;DHT22;5536;49.602;10.980;2023-02-28T10:22:53;3.60;99.90
10968;DHT22;5536;49.602;10.980;2023-02-28T10:25:26;3.60;99.90
10968;DHT22;5536;49.602;10.980;2023-02-28T10:27:54;3.60;99.90
10968;DHT22;5536;49.602;10.980;2023-02-28T10:30:24;3.70;99.90
10968;DHT22;5536;49.602;10.980;2023-02-28T10:32:52;3.80;99.90
10968;DHT22;5536;49.602;10.980;2023-02-28T10:35:23;4.00;99.90
10968;DHT22;5536;49.602;10.980;2023-02-28T10:37:52;4.00;99.90
10968;DHT22;5536;49.602;10.980;2023-02-28T10:40:29;4.10;99.90
10968;DHT22;5536;49.602;10.980;2023-02-28T10:42:58;4.30;99.90
10968;DHT22;5536;49.602;10.980;2023-02-28T10:45:28;4.40;99.90
10968;DHT22;5536;49.602;10.980;2023-02-28T10:47:57;4.40;99.90
10968;DHT22;5536;49.602;10.980;2023-02-28T10:50:32;4.40;99.90
10968;DHT22;5536;49.602;10.980;2023-02-28T10:53:30;4.50;99.90
10968;DHT22;5536;49.602;10.980;2023-02-28T10:55:59;4.70;99.90
10968;DHT22;5536;49.602;10.980;2023-02-28T10:58:30;4.80;99.90
10968;DHT22;5536;49.602;10.980;2023-02-28T11:00:58;4.70;99.90
10968;DHT22;5536;49.602;10.980;2023-02-28T11:03:31;4.80;99.90
10968;DHT22;5536;49.602;10.980;2023-02-28T11:06:05;4.90;99.90
10968;DHT22;5536;49.602;10.980;2023-02-28T11:08:33;4.80;99.90
10968;DHT22;5536;49.602;10.980;2023-02-28T11:11:05;5.00;99.90
10968;DHT22;5536;49.602;10.980;2023-02-28T11:13:34;5.30;99.90
10968;DHT22;5536;49.602;10.980;2023-02-28T11:16:04;5.30;99.90
10968;DHT22;5536;49.602;10.980;2023-02-28T11:18:38;5.50;99.90
10968;DHT22;5536;49.602;10.980;2023-02-28T11:21:09;5.70;99.90
10968;DHT22;5536;49.602;10.980;2023-02-28T11:23:40;5.90;99.90
10968;DHT22;5536;49.602;10.980;2023-02-28T11:26:08;6.00;99.90
10968;DHT22;5536;49.602;10.980;2023-02-28T11:28:38;6.20;99.90
10968;DHT22;5536;49.602;10.980;2023-02-28T11:31:26;6.30;99.90
10968;DHT22;5536;49.602;10.980;2023-02-28T11:33:56;6.60;99.90
10968;DHT22;5536;49.602;10.980;2023-02-28T11:36:27;6.60;99.90
10968;DHT22;5536;49.602;10.980;2023-02-28T11:38:59;6.80;99.90
10968;DHT22;5536;49.602;10.980;2023-02-28T11:41:42;6.90;99.90
10968;DHT22;5536;49.602;10.980;2023-02-28T11:44:27;7.30;99.90
10968;DHT22;5536;49.602;10.980;2023-02-28T11:47:02;7.20;99.90
10968;DHT22;5536;49.602;10.980;2023-02-28T11:49:36;7.50;99.90
10968;DHT22;5536;49.602;10.980;2023-02-28T11:52:18;8.00;99.90
10968;DHT22;5536;49.602;10.980;2023-02-28T11:55:11;8.40;99.90
10968;DHT22;5536;49.602;10.980;2023-02-28T12:00:40;9.00;99.90
10968;DHT22;5536;49.602;10.980;2023-02-28T12:03:19;9.00;99.90
10968;DHT22;5536;49.602;10.980;2023-02-28T12:05:54;9.10;99.90
10968;DHT22;5536;49.602;10.980;2023-02-28T12:08:40;9.50;99.90
10968;DHT22;5536;49.602;10.980;2023-02-28T12:11:14;9.30;99.90
10968;DHT22;5536;49.602;10.980;2023-02-28T12:13:52;9.00;99.90
10968;DHT22;5536;49.602;10.980;2023-02-28T12:16:44;8.30;99.90
10968;DHT22;5536;49.602;10.980;2023-02-28T12:19:19;8.80;99.90
10968;DHT22;5536;49.602;10.980;2023-02-28T12:22:00;9.50;99.90
10968;DHT22;5536;49.602;10.980;2023-02-28T12:24:43;10.00;99.90
10968;DHT22;5536;49.602;10.980;2023-02-28T12:27:17;10.30;99.90
10968;DHT22;5536;49.602;10.980;2023-02-28T12:29:51;10.00;99.90
10968;DHT22;5536;49.602;10.980;2023-02-28T12:32:23;9.90;99.90
10968;DHT22;5536;49.602;10.980;2023-02-28T12:34:58;10.00;99.90
10968;DHT22;5536;49.602;10.980;2023-02-28T12:37:31;10.60;99.90
10968;DHT22;5536;49.602;10.980;2023-02-28T12:40:03;10.60;99.90
10968;DHT22;5536;49.602;10.980;2023-02-28T12:42:36;10.90;99.90
10968;DHT22;5536;49.602;10.980;2023-02-28T12:45:10;11.00;99.90
10968;DHT22;5536;49.602;10.980;2023-02-28T12:47:42;10.90;99.90
10968;DHT22;5536;49.602;10.980;2023-02-28T12:50:12;10.50;99.90
10968;DHT22;5536;49.602;10.980;2023-02-28T12:52:44;10.80;99.90
10968;DHT22;5536;49.602;10.980;2023-02-28T12:55:21;11.00;99.90
10968;DHT22;5536;49.602;10.980;2023-02-28T12:57:58;11.40;99.90
10968;DHT22;5536;49.602;10.980;2023-02-28T13:00:34;11.40;99.90
10968;DHT22;5536;49.602;10.980;2023-02-28T13:03:24;11.10;99.90
10968;DHT22;5536;49.602;10.980;2023-02-28T13:09:08;10.70;99.90
10968;DHT22;5536;49.602;10.980;2023-02-28T13:11:41;10.70;99.90
10968;DHT22;5536;49.602;10.980;2023-02-28T13:14:23;11.10;99.90
10968;DHT22;5536;49.602;10.980;2023-02-28T13:16:56;11.20;99.90
10968;DHT22;5536;49.602;10.980;2023-02-28T13:19:25;11.40;99.90
10968;DHT22;5536;49.602;10.980;2023-02-28T13:21:53;11.90;99.90
10968;DHT22;5536;49.602;10.980;2023-02-28T13:24:42;12.10;99.90
10968;DHT22;5536;49.602;10.980;2023-02-28T13:27:34;11.90;99.90
10968;DHT22;5536;49.602;10.980;2023-02-28T13:33:41;11.70;99.90
10968;DHT22;5536;49.602;10.980;2023-02-28T13:36:29;12.10;99.90
10968;DHT22;5536;49.602;10.980;2023-02-28T13:38:58;12.10;99.90
10968;DHT22;5536;49.602;10.980;2023-02-28T13:41:47;12.40;99.90
10968;DHT22;5536;49.602;10.980;2023-02-28T13:44:18;12.10;99.90
10968;DHT22;5536;49.602;10.980;2023-02-28T13:49:45;12.00;99.90
10968;DHT22;5536;49.602;10.980;2023-02-28T13:52:16;11.70;99.90
10968;DHT22;5536;49.602;10.980;2023-02-28T13:54:55;11.00;99.90
10968;DHT22;5536;49.602;10.980;2023-02-28T13:57:33;10.50;99.90
10968;DHT22;5536;49.602;10.980;2023-02-28T14:00:16;10.60;99.90
10968;DHT22;5536;49.602;10.980;2023-02-28T14:03:10;10.50;99.90
10968;DHT22;5536;49.602;10.980;2023-02-28T14:05:40;9.60;99.90
10968;DHT22;5536;49.602;10.980;2023-02-28T14:08:12;8.90;99.90
10968;DHT22;5536;49.602;10.980;2023-02-28T14:10:44;8.20;99.90
10968;DHT22;5536;49.602;10.980;2023-02-28T14:13:36;7.80;99.90
10968;DHT22;5536;49.602;10.980;2023-02-28T14:16:12;7.20;99.90
10968;DHT22;5536;49.602;10.980;2023-02-28T14:18:42;6.90;99.90
10968;DHT22;5536;49.602;10.980;2023-02-28T14:21:21;6.70;99.90
10968;DHT22;5536;49.602;10.980;2023-02-28T14:24:10;6.60;99.90
10968;DHT22;5536;49.602;10.980;2023-02-28T14:26:58;6.40;99.90
10968;DHT22;5536;49.602;10.980;2023-02-28T14:32:43;6.40;99.90
10968;DHT22;5536;49.602;10.980;2023-02-28T14:35:21;6.20;99.90
10968;DHT22;5536;49.602;10.980;2023-02-28T14:37:52;6.20;99.90
10968;DHT22;5536;49.602;10.980;2023-02-28T14:40:26;6.30;99.90
10968;DHT22;5536;49.602;10.980;2023-02-28T14:42:56;6.30;99.90
10968;DHT22;5536;49.602;10.980;2023-02-28T14:45:23;6.20;99.90
10968;DHT22;5536;49.602;10.980;2023-02-28T14:47:52;6.00;99.90
10968;DHT22;5536;49.602;10.980;2023-02-28T14:50:21;6.00;99.90
10968;DHT22;5536;49.602;10.980;2023-02-28T14:52:52;5.80;99.90
10968;DHT22;5536;49.602;10.980;2023-02-28T14:55:26;5.80;99.90
10968;DHT22;5536;49.602;10.980;2023-02-28T14:57:56;5.70;99.90
10968;DHT22;5536;49.602;10.980;2023-02-28T15:00:25;5.80;99.90
10968;DHT22;5536;49.602;10.980;2023-02-28T15:02:57;5.80;99.90
10968;DHT22;5536;49.602;10.980;2023-02-28T15:05:28;5.80;99.90
10968;DHT22;5536;49.602;10.980;2023-02-28T15:08:05;5.70;99.90
10968;DHT22;5536;49.602;10.980;2023-02-28T15:10:33;5.70;99.90
10968;DHT22;5536;49.602;10.980;2023-02-28T15:13:02;5.60;99.90
10968;DHT22;5536;49.602;10.980;2023-02-28T15:15:40;5.70;99.90
10968;DHT22;5536;49.602;10.980;2023-02-28T15:18:14;5.60;99.90
10968;DHT22;5536;49.602;10.980;2023-02-28T15:20:44;5.60;99.90
10968;DHT22;5536;49.602;10.980;2023-02-28T15:23:12;5.60;99.90
10968;DHT22;5536;49.602;10.980;2023-02-28T15:25:42;5.60;99.90
10968;DHT22;5536;49.602;10.980;2023-02-28T15:28:14;5.60;99.90
10968;DHT22;5536;49.602;10.980;2023-02-28T15:30:56;5.60;99.90
10968;DHT22;5536;49.602;10.980;2023-02-28T15:33:29;5.70;99.90
10968;DHT22;5536;49.602;10.980;2023-02-28T15:36:10;5.60;99.90
10968;DHT22;5536;49.602;10.980;2023-02-28T15:38:38;5.50;99.90
10968;DHT22;5536;49.602;10.980;2023-02-28T15:41:05;5.50;99.90
10968;DHT22;5536;49.602;10.980;2023-02-28T15:43:35;5.40;99.90
10968;DHT22;5536;49.602;10.980;2023-02-28T15:46:04;5.50;99.90
10968;DHT22;5536;49.602;10.980;2023-02-28T15:48:35;5.40;99.90
10968;DHT22;5536;49.602;10.980;2023-02-28T15:51:07;5.40;99.90
10968;DHT22;5536;49.602;10.980;2023-02-28T15:53:37;5.30;99.90
10968;DHT22;5536;49.602;10.980;2023-02-28T15:56:20;5.40;99.90
10968;DHT22;5536;49.602;10.980;2023-02-28T15:58:53;5.30;99.90
10968;DHT22;5536;49.602;10.980;2023-02-28T16:01:24;5.30;99.90
10968;DHT22;5536;49.602;10.980;2023-02-28T16:03:55;5.30;99.90
10968;DHT22;5536;49.602;10.980;2023-02-28T16:06:30;5.20;99.90
10968;DHT22;5536;49.602;10.980;2023-02-28T16:08:59;5.00;99.90
10968;DHT22;5536;49.602;10.980;2023-02-28T16:11:26;5.00;99.90
10968;DHT22;5536;49.602;10.980;2023-02-28T16:13:53;4.90;99.90
10968;DHT22;5536;49.602;10.980;2023-02-28T16:16:22;4.90;99.90
10968;DHT22;5536;49.602;10.980;2023-02-28T16:18:49;4.90;99.90
10968;DHT22;5536;49.602;10.980;2023-02-28T16:21:18;4.80;99.90
10968;DHT22;5536;49.602;10.980;2023-02-28T16:23:45;4.70;99.90
10968;DHT22;5536;49.602;10.980;2023-02-28T16:26:18;4.70;99.90